Terminal Aerodrome Forecast
Issued by NWS

Home | Current Version | Previous Version | Text Only | Print | Product List | Glossary On
Versions: 1 2 3 4 5 6 7 8 9 10 11 12 13 14
790
FTPA31 PHFO 050545
TAFHTO
TAF
PHTO 050545Z 0506/0606 24005KT P6SM SCT025 SCT050
     FM052000 12010KT P6SM SCT025 BKN050=

USA.gov is the U.S. government's official web portal to all federal, state and local government web resources and services.